sensor_id;sensor_type;location;lat;lon;timestamp;P1;durP1;ratioP1;P2;durP2;ratioP2
23336;SDS011;11840;45.414;12.372;2024-01-15T00:01:31;82.32;;;51.25;;
23336;SDS011;11840;45.414;12.372;2024-01-15T00:03:57;81.72;;;52.33;;
23336;SDS011;11840;45.414;12.372;2024-01-15T00:06:23;80.78;;;50.50;;
23336;SDS011;11840;45.414;12.372;2024-01-15T00:08:49;80.60;;;50.45;;
23336;SDS011;11840;45.414;12.372;2024-01-15T08:00:21;68.28;;;42.72;;
23336;SDS011;11840;45.414;12.372;2024-01-15T08:02:47;71.00;;;43.45;;
23336;SDS011;11840;45.414;12.372;2024-01-15T08:05:13;74.15;;;45.10;;
23336;SDS011;11840;45.414;12.372;2024-01-15T08:07:38;74.15;;;45.42;;
23336;SDS011;11840;45.414;12.372;2024-01-15T08:10:05;73.93;;;46.60;;
23336;SDS011;11840;45.414;12.372;2024-01-15T08:12:32;75.78;;;48.25;;
23336;SDS011;11840;45.414;12.372;2024-01-15T08:14:57;96.00;;;48.60;;
23336;SDS011;11840;45.414;12.372;2024-01-15T08:17:23;74.45;;;48.53;;
23336;SDS011;11840;45.414;12.372;2024-01-15T08:19:53;78.55;;;49.35;;
23336;SDS011;11840;45.414;12.372;2024-01-15T08:22:19;76.75;;;47.97;;
23336;SDS011;11840;45.414;12.372;2024-01-15T08:24:46;77.03;;;48.85;;
23336;SDS011;11840;45.414;12.372;2024-01-15T08:27:11;76.65;;;49.22;;
23336;SDS011;11840;45.414;12.372;2024-01-15T08:29:38;74.82;;;48.78;;
23336;SDS011;11840;45.414;12.372;2024-01-15T08:32:04;73.43;;;47.45;;
23336;SDS011;11840;45.414;12.372;2024-01-15T08:34:30;72.00;;;44.72;;
23336;SDS011;11840;45.414;12.372;2024-01-15T08:36:56;68.75;;;44.42;;
23336;SDS011;11840;45.414;12.372;2024-01-15T08:39:22;66.82;;;42.40;;
23336;SDS011;11840;45.414;12.372;2024-01-15T08:41:49;69.45;;;41.53;;
23336;SDS011;11840;45.414;12.372;2024-01-15T08:44:15;68.60;;;42.72;;
23336;SDS011;11840;45.414;12.372;2024-01-15T08:46:41;64.18;;;41.28;;
23336;SDS011;11840;45.414;12.372;2024-01-15T08:49:06;69.93;;;40.38;;
23336;SDS011;11840;45.414;12.372;2024-01-15T08:51:32;65.32;;;40.47;;
23336;SDS011;11840;45.414;12.372;2024-01-15T08:53:58;69.05;;;42.20;;
23336;SDS011;11840;45.414;12.372;2024-01-15T08:56:24;60.78;;;37.10;;
23336;SDS011;11840;45.414;12.372;2024-01-15T08:58:51;64.53;;;39.60;;
23336;SDS011;11840;45.414;12.372;2024-01-15T09:01:17;62.75;;;39.38;;
23336;SDS011;11840;45.414;12.372;2024-01-15T09:03:44;61.72;;;38.75;;
23336;SDS011;11840;45.414;12.372;2024-01-15T09:06:10;61.45;;;37.50;;
23336;SDS011;11840;45.414;12.372;2024-01-15T09:08:36;59.17;;;36.67;;
23336;SDS011;11840;45.414;12.372;2024-01-15T09:11:02;62.58;;;34.65;;
23336;SDS011;11840;45.414;12.372;2024-01-15T09:13:29;63.05;;;36.33;;
23336;SDS011;11840;45.414;12.372;2024-01-15T09:15:55;52.20;;;33.47;;
23336;SDS011;11840;45.414;12.372;2024-01-15T09:18:21;55.17;;;34.28;;
23336;SDS011;11840;45.414;12.372;2024-01-15T09:20:47;53.13;;;32.22;;
23336;SDS011;11840;45.414;12.372;2024-01-15T09:23:13;56.10;;;33.03;;
23336;SDS011;11840;45.414;12.372;2024-01-15T09:25:39;59.92;;;33.08;;
23336;SDS011;11840;45.414;12.372;2024-01-15T09:28:05;57.58;;;33.72;;
23336;SDS011;11840;45.414;12.372;2024-01-15T09:30:32;51.15;;;32.92;;
23336;SDS011;11840;45.414;12.372;2024-01-15T09:32:59;56.45;;;35.03;;
23336;SDS011;11840;45.414;12.372;2024-01-15T09:35:25;55.72;;;32.75;;
23336;SDS011;11840;45.414;12.372;2024-01-15T09:37:50;51.65;;;33.53;;
23336;SDS011;11840;45.414;12.372;2024-01-15T09:40:16;51.22;;;33.53;;
23336;SDS011;11840;45.414;12.372;2024-01-15T09:42:42;56.00;;;33.90;;
23336;SDS011;11840;45.414;12.372;2024-01-15T09:45:09;55.88;;;33.22;;
23336;SDS011;11840;45.414;12.372;2024-01-15T09:47:36;51.10;;;33.92;;
23336;SDS011;11840;45.414;12.372;2024-01-15T09:50:02;51.78;;;33.50;;
23336;SDS011;11840;45.414;12.372;2024-01-15T09:52:29;52.90;;;33.30;;
23336;SDS011;11840;45.414;12.372;2024-01-15T09:54:57;52.45;;;34.28;;
23336;SDS011;11840;45.414;12.372;2024-01-15T09:57:24;53.95;;;34.70;;
23336;SDS011;11840;45.414;12.372;2024-01-15T09:59:50;55.25;;;33.80;;
23336;SDS011;11840;45.414;12.372;2024-01-15T10:02:17;59.47;;;34.28;;
23336;SDS011;11840;45.414;12.372;2024-01-15T10:04:44;57.97;;;33.75;;
23336;SDS011;11840;45.414;12.372;2024-01-15T10:07:11;51.67;;;33.17;;
23336;SDS011;11840;45.414;12.372;2024-01-15T10:09:39;51.03;;;32.33;;
23336;SDS011;11840;45.414;12.372;2024-01-15T10:12:06;54.83;;;32.38;;
23336;SDS011;11840;45.414;12.372;2024-01-15T10:14:33;63.83;;;33.95;;
23336;SDS011;11840;45.414;12.372;2024-01-15T10:16:59;51.78;;;32.53;;
23336;SDS011;11840;45.414;12.372;2024-01-15T10:19:25;55.00;;;33.13;;
23336;SDS011;11840;45.414;12.372;2024-01-15T10:21:51;51.88;;;33.13;;
23336;SDS011;11840;45.414;12.372;2024-01-15T10:24:17;48.53;;;31.65;;
23336;SDS011;11840;45.414;12.372;2024-01-15T10:26:44;51.25;;;31.92;;
23336;SDS011;11840;45.414;12.372;2024-01-15T10:29:10;52.13;;;32.53;;
23336;SDS011;11840;45.414;12.372;2024-01-15T10:31:37;52.65;;;32.20;;
23336;SDS011;11840;45.414;12.372;2024-01-15T10:34:10;52.42;;;32.75;;
23336;SDS011;11840;45.414;12.372;2024-01-15T10:36:38;53.42;;;31.55;;
23336;SDS011;11840;45.414;12.372;2024-01-15T10:39:05;52.55;;;31.95;;
23336;SDS011;11840;45.414;12.372;2024-01-15T10:41:31;57.78;;;34.20;;
23336;SDS011;11840;45.414;12.372;2024-01-15T10:43:57;55.13;;;33.25;;
23336;SDS011;11840;45.414;12.372;2024-01-15T10:46:23;51.28;;;33.42;;
23336;SDS011;11840;45.414;12.372;2024-01-15T10:48:50;55.13;;;34.05;;
23336;SDS011;11840;45.414;12.372;2024-01-15T10:51:16;59.08;;;35.22;;
23336;SDS011;11840;45.414;12.372;2024-01-15T10:53:42;59.63;;;34.88;;
23336;SDS011;11840;45.414;12.372;2024-01-15T10:56:08;61.58;;;35.80;;
23336;SDS011;11840;45.414;12.372;2024-01-15T10:58:35;58.25;;;34.42;;
23336;SDS011;11840;45.414;12.372;2024-01-15T11:01:03;59.75;;;36.00;;
23336;SDS011;11840;45.414;12.372;2024-01-15T11:03:30;56.58;;;35.55;;
23336;SDS011;11840;45.414;12.372;2024-01-15T11:05:56;60.20;;;35.97;;
23336;SDS011;11840;45.414;12.372;2024-01-15T11:08:23;53.58;;;35.40;;
23336;SDS011;11840;45.414;12.372;2024-01-15T11:10:50;57.55;;;35.33;;
23336;SDS011;11840;45.414;12.372;2024-01-15T11:16:04;55.72;;;34.08;;
23336;SDS011;11840;45.414;12.372;2024-01-15T11:18:37;53.58;;;33.58;;
23336;SDS011;11840;45.414;12.372;2024-01-15T11:23:44;58.72;;;36.78;;
23336;SDS011;11840;45.414;12.372;2024-01-15T11:26:32;57.85;;;35.42;;
23336;SDS011;11840;45.414;12.372;2024-01-15T11:28:58;61.95;;;37.35;;
23336;SDS011;11840;45.414;12.372;2024-01-15T11:31:26;62.92;;;38.92;;
23336;SDS011;11840;45.414;12.372;2024-01-15T11:33:52;60.13;;;37.45;;
23336;SDS011;11840;45.414;12.372;2024-01-15T11:36:18;64.43;;;38.88;;
23336;SDS011;11840;45.414;12.372;2024-01-15T11:38:44;51.22;;;32.90;;
23336;SDS011;11840;45.414;12.372;2024-01-15T11:41:14;53.00;;;31.33;;
23336;SDS011;11840;45.414;12.372;2024-01-15T11:44:00;64.38;;;42.05;;
23336;SDS011;11840;45.414;12.372;2024-01-15T11:46:26;61.30;;;39.67;;
23336;SDS011;11840;45.414;12.372;2024-01-15T11:48:58;60.75;;;38.60;;
23336;SDS011;11840;45.414;12.372;2024-01-15T11:51:29;61.95;;;41.00;;
23336;SDS011;11840;45.414;12.372;2024-01-15T11:53:55;64.15;;;42.10;;
23336;SDS011;11840;45.414;12.372;2024-01-15T11:56:23;67.10;;;42.08;;
23336;SDS011;11840;45.414;12.372;2024-01-15T11:58:49;69.63;;;43.50;;
23336;SDS011;11840;45.414;12.372;2024-01-15T12:01:16;63.30;;;42.05;;
23336;SDS011;11840;45.414;12.372;2024-01-15T12:03:42;67.97;;;41.78;;
23336;SDS011;11840;45.414;12.372;2024-01-15T12:06:09;64.75;;;41.85;;
23336;SDS011;11840;45.414;12.372;2024-01-15T12:08:36;63.70;;;42.88;;
23336;SDS011;11840;45.414;12.372;2024-01-15T12:11:11;65.82;;;42.60;;
23336;SDS011;11840;45.414;12.372;2024-01-15T12:13:39;67.22;;;42.67;;
23336;SDS011;11840;45.414;12.372;2024-01-15T12:16:05;68.53;;;42.72;;
23336;SDS011;11840;45.414;12.372;2024-01-15T12:18:31;62.60;;;42.55;;
23336;SDS011;11840;45.414;12.372;2024-01-15T12:20:57;97.20;;;43.67;;
23336;SDS011;11840;45.414;12.372;2024-01-15T12:23:24;65.13;;;41.58;;
23336;SDS011;11840;45.414;12.372;2024-01-15T12:25:50;67.35;;;42.53;;
23336;SDS011;11840;45.414;12.372;2024-01-15T12:28:16;66.15;;;43.13;;
23336;SDS011;11840;45.414;12.372;2024-01-15T12:30:42;66.97;;;42.85;;
23336;SDS011;11840;45.414;12.372;2024-01-15T12:33:08;62.08;;;41.55;;
23336;SDS011;11840;45.414;12.372;2024-01-15T12:35:34;66.90;;;41.70;;
23336;SDS011;11840;45.414;12.372;2024-01-15T12:38:00;64.60;;;42.75;;
23336;SDS011;11840;45.414;12.372;2024-01-15T12:40:29;65.57;;;42.67;;
23336;SDS011;11840;45.414;12.372;2024-01-15T12:42:56;62.50;;;41.60;;
23336;SDS011;11840;45.414;12.372;2024-01-15T12:45:29;66.10;;;41.88;;
23336;SDS011;11840;45.414;12.372;2024-01-15T12:47:55;67.25;;;43.25;;
23336;SDS011;11840;45.414;12.372;2024-01-15T12:50:24;67.32;;;44.05;;
23336;SDS011;11840;45.414;12.372;2024-01-15T12:52:49;63.92;;;43.97;;
23336;SDS011;11840;45.414;12.372;2024-01-15T12:55:16;66.35;;;43.13;;
23336;SDS011;11840;45.414;12.372;2024-01-15T12:57:42;66.45;;;43.65;;
23336;SDS011;11840;45.414;12.372;2024-01-15T13:00:07;72.25;;;46.10;;
23336;SDS011;11840;45.414;12.372;2024-01-15T13:02:40;71.85;;;45.85;;
23336;SDS011;11840;45.414;12.372;2024-01-15T13:05:07;67.53;;;45.55;;
23336;SDS011;11840;45.414;12.372;2024-01-15T13:07:33;72.93;;;44.35;;
23336;SDS011;11840;45.414;12.372;2024-01-15T13:10:00;71.88;;;43.83;;
23336;SDS011;11840;45.414;12.372;2024-01-15T13:12:26;67.68;;;43.15;;
23336;SDS011;11840;45.414;12.372;2024-01-15T13:14:52;76.32;;;43.85;;
23336;SDS011;11840;45.414;12.372;2024-01-15T13:17:18;68.60;;;41.40;;
23336;SDS011;11840;45.414;12.372;2024-01-15T13:19:46;65.30;;;42.17;;
23336;SDS011;11840;45.414;12.372;2024-01-15T13:22:12;69.53;;;42.15;;
23336;SDS011;11840;45.414;12.372;2024-01-15T13:24:39;65.93;;;41.58;;
23336;SDS011;11840;45.414;12.372;2024-01-15T13:27:06;62.20;;;40.60;;
23336;SDS011;11840;45.414;12.372;2024-01-15T13:29:32;59.92;;;40.15;;
23336;SDS011;11840;45.414;12.372;2024-01-15T13:31:58;64.15;;;40.22;;
23336;SDS011;11840;45.414;12.372;2024-01-15T13:34:24;63.15;;;40.60;;
23336;SDS011;11840;45.414;12.372;2024-01-15T13:36:49;77.20;;;41.85;;
23336;SDS011;11840;45.414;12.372;2024-01-15T13:39:19;87.65;;;41.28;;
23336;SDS011;11840;45.414;12.372;2024-01-15T13:41:49;70.20;;;42.42;;
23336;SDS011;11840;45.414;12.372;2024-01-15T13:44:15;67.10;;;43.08;;
23336;SDS011;11840;45.414;12.372;2024-01-15T13:46:41;70.75;;;44.35;;
23336;SDS011;11840;45.414;12.372;2024-01-15T13:49:07;61.38;;;41.53;;
23336;SDS011;11840;45.414;12.372;2024-01-15T13:51:34;66.35;;;40.30;;
23336;SDS011;11840;45.414;12.372;2024-01-15T13:54:00;66.22;;;41.47;;
23336;SDS011;11840;45.414;12.372;2024-01-15T13:56:26;78.18;;;39.10;;
23336;SDS011;11840;45.414;12.372;2024-01-15T13:58:57;58.83;;;38.00;;
23336;SDS011;11840;45.414;12.372;2024-01-15T14:01:23;60.50;;;40.55;;
23336;SDS011;11840;45.414;12.372;2024-01-15T14:03:49;59.20;;;38.30;;
23336;SDS011;11840;45.414;12.372;2024-01-15T14:06:15;62.25;;;39.38;;
23336;SDS011;11840;45.414;12.372;2024-01-15T14:08:41;61.60;;;39.72;;
23336;SDS011;11840;45.414;12.372;2024-01-15T14:11:07;63.92;;;40.50;;
23336;SDS011;11840;45.414;12.372;2024-01-15T14:13:33;76.80;;;42.25;;
23336;SDS011;11840;45.414;12.372;2024-01-15T14:15:59;71.25;;;42.05;;
23336;SDS011;11840;45.414;12.372;2024-01-15T14:18:26;68.03;;;43.15;;
23336;SDS011;11840;45.414;12.372;2024-01-15T14:20:52;69.85;;;44.03;;
23336;SDS011;11840;45.414;12.372;2024-01-15T14:23:19;71.65;;;43.92;;
23336;SDS011;11840;45.414;12.372;2024-01-15T14:25:45;69.70;;;43.90;;
23336;SDS011;11840;45.414;12.372;2024-01-15T14:28:11;73.13;;;45.03;;
23336;SDS011;11840;45.414;12.372;2024-01-15T14:30:37;70.07;;;44.47;;
23336;SDS011;11840;45.414;12.372;2024-01-15T14:33:03;74.30;;;45.88;;
23336;SDS011;11840;45.414;12.372;2024-01-15T14:35:29;72.55;;;45.38;;
23336;SDS011;11840;45.414;12.372;2024-01-15T14:37:56;69.28;;;44.90;;
23336;SDS011;11840;45.414;12.372;2024-01-15T14:40:24;70.25;;;45.03;;
23336;SDS011;11840;45.414;12.372;2024-01-15T14:42:51;74.75;;;45.83;;
23336;SDS011;11840;45.414;12.372;2024-01-15T14:45:16;75.18;;;45.60;;
23336;SDS011;11840;45.414;12.372;2024-01-15T14:47:42;79.43;;;46.70;;
23336;SDS011;11840;45.414;12.372;2024-01-15T14:50:09;75.00;;;45.67;;
23336;SDS011;11840;45.414;12.372;2024-01-15T14:52:36;71.22;;;46.22;;
23336;SDS011;11840;45.414;12.372;2024-01-15T14:55:02;74.90;;;46.50;;
23336;SDS011;11840;45.414;12.372;2024-01-15T14:57:28;72.47;;;46.28;;
23336;SDS011;11840;45.414;12.372;2024-01-15T14:59:54;69.15;;;43.72;;
23336;SDS011;11840;45.414;12.372;2024-01-15T15:02:20;74.88;;;46.55;;
23336;SDS011;11840;45.414;12.372;2024-01-15T15:04:46;80.07;;;45.90;;
23336;SDS011;11840;45.414;12.372;2024-01-15T15:07:13;77.28;;;47.92;;
23336;SDS011;11840;45.414;12.372;2024-01-15T15:09:39;74.03;;;46.63;;
23336;SDS011;11840;45.414;12.372;2024-01-15T15:12:05;75.07;;;46.45;;
23336;SDS011;11840;45.414;12.372;2024-01-15T15:14:32;76.10;;;46.95;;
23336;SDS011;11840;45.414;12.372;2024-01-15T15:17:05;76.32;;;47.67;;
23336;SDS011;11840;45.414;12.372;2024-01-15T15:19:32;76.57;;;47.80;;
23336;SDS011;11840;45.414;12.372;2024-01-15T15:21:58;81.95;;;48.22;;
23336;SDS011;11840;45.414;12.372;2024-01-15T15:24:24;77.95;;;49.08;;
23336;SDS011;11840;45.414;12.372;2024-01-15T15:26:51;76.00;;;48.10;;
23336;SDS011;11840;45.414;12.372;2024-01-15T15:29:17;76.03;;;48.55;;
23336;SDS011;11840;45.414;12.372;2024-01-15T15:31:44;74.03;;;47.65;;
23336;SDS011;11840;45.414;12.372;2024-01-15T15:34:10;80.10;;;49.90;;
23336;SDS011;11840;45.414;12.372;2024-01-15T15:36:36;74.75;;;47.53;;
23336;SDS011;11840;45.414;12.372;2024-01-15T15:39:02;80.18;;;49.42;;
23336;SDS011;11840;45.414;12.372;2024-01-15T15:41:28;73.13;;;48.00;;
23336;SDS011;11840;45.414;12.372;2024-01-15T15:43:54;76.40;;;48.95;;
23336;SDS011;11840;45.414;12.372;2024-01-15T15:46:20;77.32;;;48.92;;
23336;SDS011;11840;45.414;12.372;2024-01-15T15:48:47;79.20;;;49.63;;
23336;SDS011;11840;45.414;12.372;2024-01-15T15:51:13;83.20;;;49.00;;
23336;SDS011;11840;45.414;12.372;2024-01-15T15:53:39;80.40;;;49.15;;
23336;SDS011;11840;45.414;12.372;2024-01-15T15:56:05;78.47;;;49.72;;
23336;SDS011;11840;45.414;12.372;2024-01-15T15:58:31;76.65;;;47.92;;
23336;SDS011;11840;45.414;12.372;2024-01-15T16:00:58;82.88;;;49.20;;
23336;SDS011;11840;45.414;12.372;2024-01-15T16:03:24;81.90;;;49.30;;
23336;SDS011;11840;45.414;12.372;2024-01-15T16:05:50;82.95;;;49.40;;
23336;SDS011;11840;45.414;12.372;2024-01-15T16:08:16;81.20;;;50.17;;
23336;SDS011;11840;45.414;12.372;2024-01-15T16:10:43;87.43;;;50.63;;
23336;SDS011;11840;45.414;12.372;2024-01-15T16:13:10;84.57;;;49.33;;
23336;SDS011;11840;45.414;12.372;2024-01-15T16:15:36;80.00;;;50.70;;
23336;SDS011;11840;45.414;12.372;2024-01-15T16:18:02;84.93;;;52.05;;
23336;SDS011;11840;45.414;12.372;2024-01-15T16:20:29;84.25;;;50.10;;
23336;SDS011;11840;45.414;12.372;2024-01-15T16:22:54;79.93;;;49.22;;
23336;SDS011;11840;45.414;12.372;2024-01-15T16:25:20;82.78;;;51.03;;
23336;SDS011;11840;45.414;12.372;2024-01-15T16:27:46;81.55;;;49.70;;
23336;SDS011;11840;45.414;12.372;2024-01-15T16:30:12;84.10;;;51.40;;
23336;SDS011;11840;45.414;12.372;2024-01-15T16:32:38;86.32;;;51.95;;
23336;SDS011;11840;45.414;12.372;2024-01-15T16:35:04;83.63;;;49.17;;
23336;SDS011;11840;45.414;12.372;2024-01-15T16:37:31;83.63;;;50.20;;
23336;SDS011;11840;45.414;12.372;2024-01-15T16:39:57;80.78;;;50.30;;
23336;SDS011;11840;45.414;12.372;2024-01-15T16:42:23;78.05;;;48.08;;
23336;SDS011;11840;45.414;12.372;2024-01-15T16:44:49;81.20;;;48.83;;
23336;SDS011;11840;45.414;12.372;2024-01-15T16:47:15;87.35;;;49.88;;
23336;SDS011;11840;45.414;12.372;2024-01-15T16:49:41;78.65;;;49.13;;
23336;SDS011;11840;45.414;12.372;2024-01-15T16:52:07;80.05;;;49.80;;
23336;SDS011;11840;45.414;12.372;2024-01-15T16:54:34;80.90;;;50.28;;
23336;SDS011;11840;45.414;12.372;2024-01-15T16:57:00;81.93;;;50.45;;
23336;SDS011;11840;45.414;12.372;2024-01-15T16:59:26;76.80;;;47.53;;
23336;SDS011;11840;45.414;12.372;2024-01-15T17:01:53;85.72;;;50.65;;
23336;SDS011;11840;45.414;12.372;2024-01-15T17:04:19;78.55;;;48.60;;
23336;SDS011;11840;45.414;12.372;2024-01-15T17:06:45;81.75;;;48.17;;
23336;SDS011;11840;45.414;12.372;2024-01-15T17:09:10;78.70;;;48.50;;
23336;SDS011;11840;45.414;12.372;2024-01-15T17:11:35;80.32;;;48.95;;
23336;SDS011;11840;45.414;12.372;2024-01-15T17:14:01;79.63;;;48.40;;
23336;SDS011;11840;45.414;12.372;2024-01-15T17:16:29;82.10;;;49.72;;
23336;SDS011;11840;45.414;12.372;2024-01-15T17:18:55;83.43;;;50.78;;
23336;SDS011;11840;45.414;12.372;2024-01-15T17:21:24;79.22;;;47.50;;
23336;SDS011;11840;45.414;12.372;2024-01-15T17:23:49;80.18;;;48.58;;
23336;SDS011;11840;45.414;12.372;2024-01-15T17:26:18;76.35;;;47.08;;
23336;SDS011;11840;45.414;12.372;2024-01-15T17:28:44;79.15;;;47.97;;
23336;SDS011;11840;45.414;12.372;2024-01-15T17:31:10;79.45;;;49.03;;
23336;SDS011;11840;45.414;12.372;2024-01-15T17:33:36;82.88;;;47.50;;
23336;SDS011;11840;45.414;12.372;2024-01-15T17:36:02;77.50;;;48.08;;
23336;SDS011;11840;45.414;12.372;2024-01-15T17:38:28;77.78;;;48.58;;
23336;SDS011;11840;45.414;12.372;2024-01-15T17:40:54;77.07;;;47.90;;
23336;SDS011;11840;45.414;12.372;2024-01-15T17:43:20;78.35;;;49.03;;
23336;SDS011;11840;45.414;12.372;2024-01-15T17:45:48;78.10;;;50.88;;
23336;SDS011;11840;45.414;12.372;2024-01-15T17:48:14;79.95;;;48.35;;
23336;SDS011;11840;45.414;12.372;2024-01-15T17:50:43;81.60;;;48.80;;
23336;SDS011;11840;45.414;12.372;2024-01-15T17:53:09;81.30;;;49.45;;
23336;SDS011;11840;45.414;12.372;2024-01-15T17:55:36;78.40;;;47.08;;
23336;SDS011;11840;45.414;12.372;2024-01-15T17:58:02;80.82;;;49.25;;
23336;SDS011;11840;45.414;12.372;2024-01-15T18:00:28;79.75;;;47.08;;
23336;SDS011;11840;45.414;12.372;2024-01-15T18:02:54;80.72;;;47.25;;
23336;SDS011;11840;45.414;12.372;2024-01-15T18:05:21;81.32;;;48.47;;
23336;SDS011;11840;45.414;12.372;2024-01-15T18:07:47;82.93;;;50.28;;
23336;SDS011;11840;45.414;12.372;2024-01-15T18:10:13;144.15;;;82.18;;
23336;SDS011;11840;45.414;12.372;2024-01-15T18:12:39;89.78;;;52.85;;
23336;SDS011;11840;45.414;12.372;2024-01-15T18:15:05;78.78;;;49.88;;
23336;SDS011;11840;45.414;12.372;2024-01-15T18:17:32;79.15;;;47.83;;
23336;SDS011;11840;45.414;12.372;2024-01-15T18:20:03;76.30;;;47.38;;
23336;SDS011;11840;45.414;12.372;2024-01-15T18:22:30;83.78;;;50.42;;
23336;SDS011;11840;45.414;12.372;2024-01-15T18:24:55;79.82;;;49.63;;
23336;SDS011;11840;45.414;12.372;2024-01-15T18:27:21;73.68;;;47.85;;
23336;SDS011;11840;45.414;12.372;2024-01-15T18:29:51;79.50;;;49.10;;
23336;SDS011;11840;45.414;12.372;2024-01-15T18:32:17;76.82;;;49.55;;
23336;SDS011;11840;45.414;12.372;2024-01-15T18:34:45;75.45;;;46.10;;
23336;SDS011;11840;45.414;12.372;2024-01-15T18:37:12;76.45;;;47.63;;
23336;SDS011;11840;45.414;12.372;2024-01-15T18:39:44;82.07;;;47.53;;
23336;SDS011;11840;45.414;12.372;2024-01-15T18:42:10;75.63;;;46.58;;
23336;SDS011;11840;45.414;12.372;2024-01-15T18:44:36;83.03;;;49.15;;
23336;SDS011;11840;45.414;12.372;2024-01-15T18:47:02;79.97;;;47.63;;
23336;SDS011;11840;45.414;12.372;2024-01-15T18:49:28;77.78;;;48.13;;
23336;SDS011;11840;45.414;12.372;2024-01-15T18:51:55;81.93;;;48.90;;
23336;SDS011;11840;45.414;12.372;2024-01-15T18:54:24;80.40;;;47.67;;
23336;SDS011;11840;45.414;12.372;2024-01-15T18:56:52;87.50;;;51.83;;
23336;SDS011;11840;45.414;12.372;2024-01-15T18:59:19;81.68;;;49.75;;
23336;SDS011;11840;45.414;12.372;2024-01-15T19:01:48;78.40;;;48.72;;
23336;SDS011;11840;45.414;12.372;2024-01-15T19:04:15;85.22;;;50.00;;
23336;SDS011;11840;45.414;12.372;2024-01-15T19:06:40;83.00;;;50.00;;
23336;SDS011;11840;45.414;12.372;2024-01-15T19:09:07;86.30;;;48.67;;
23336;SDS011;11840;45.414;12.372;2024-01-15T19:11:34;80.60;;;49.55;;
23336;SDS011;11840;45.414;12.372;2024-01-15T19:14:00;92.20;;;54.08;;
23336;SDS011;11840;45.414;12.372;2024-01-15T19:16:25;79.47;;;49.28;;
23336;SDS011;11840;45.414;12.372;2024-01-15T19:18:52;85.47;;;51.80;;
23336;SDS011;11840;45.414;12.372;2024-01-15T19:21:21;86.03;;;51.20;;
23336;SDS011;11840;45.414;12.372;2024-01-15T19:23:46;83.70;;;49.53;;
23336;SDS011;11840;45.414;12.372;2024-01-15T19:26:19;84.45;;;49.03;;
23336;SDS011;11840;45.414;12.372;2024-01-15T19:28:45;83.63;;;51.03;;
23336;SDS011;11840;45.414;12.372;2024-01-15T19:31:11;85.90;;;50.42;;
23336;SDS011;11840;45.414;12.372;2024-01-15T19:33:37;84.65;;;50.67;;
23336;SDS011;11840;45.414;12.372;2024-01-15T19:36:03;85.95;;;51.50;;
23336;SDS011;11840;45.414;12.372;2024-01-15T19:38:29;82.57;;;51.95;;
23336;SDS011;11840;45.414;12.372;2024-01-15T19:40:55;81.85;;;49.85;;
23336;SDS011;11840;45.414;12.372;2024-01-15T19:43:21;85.07;;;51.47;;
23336;SDS011;11840;45.414;12.372;2024-01-15T19:45:51;84.82;;;49.53;;
23336;SDS011;11840;45.414;12.372;2024-01-15T19:48:17;86.50;;;51.50;;
23336;SDS011;11840;45.414;12.372;2024-01-15T19:50:45;89.75;;;50.22;;
23336;SDS011;11840;45.414;12.372;2024-01-15T19:53:11;84.47;;;52.00;;
23336;SDS011;11840;45.414;12.372;2024-01-15T19:55:37;82.28;;;48.78;;
23336;SDS011;11840;45.414;12.372;2024-01-15T19:58:03;85.63;;;49.70;;
23336;SDS011;11840;45.414;12.372;2024-01-15T20:00:29;86.72;;;52.28;;
23336;SDS011;11840;45.414;12.372;2024-01-15T20:02:55;84.32;;;50.78;;
23336;SDS011;11840;45.414;12.372;2024-01-15T20:05:21;81.97;;;51.00;;
23336;SDS011;11840;45.414;12.372;2024-01-15T20:07:47;85.38;;;51.00;;
23336;SDS011;11840;45.414;12.372;2024-01-15T20:10:13;82.15;;;50.15;;
23336;SDS011;11840;45.414;12.372;2024-01-15T20:12:39;82.35;;;50.13;;
23336;SDS011;11840;45.414;12.372;2024-01-15T20:15:05;82.22;;;50.17;;
23336;SDS011;11840;45.414;12.372;2024-01-15T20:17:31;82.20;;;49.65;;
23336;SDS011;11840;45.414;12.372;2024-01-15T20:19:57;84.50;;;52.42;;
23336;SDS011;11840;45.414;12.372;2024-01-15T20:22:23;88.05;;;52.97;;
23336;SDS011;11840;45.414;12.372;2024-01-15T20:24:49;84.93;;;51.58;;
23336;SDS011;11840;45.414;12.372;2024-01-15T20:27:15;91.93;;;53.03;;
23336;SDS011;11840;45.414;12.372;2024-01-15T20:29:41;180.95;;;89.68;;
23336;SDS011;11840;45.414;12.372;2024-01-15T20:32:07;86.82;;;52.08;;
23336;SDS011;11840;45.414;12.372;2024-01-15T20:34:33;87.55;;;52.85;;
23336;SDS011;11840;45.414;12.372;2024-01-15T20:36:59;83.07;;;51.63;;
23336;SDS011;11840;45.414;12.372;2024-01-15T20:39:25;88.35;;;53.28;;
23336;SDS011;11840;45.414;12.372;2024-01-15T20:41:52;89.03;;;52.67;;
23336;SDS011;11840;45.414;12.372;2024-01-15T20:44:18;85.03;;;52.25;;
23336;SDS011;11840;45.414;12.372;2024-01-15T20:46:43;87.80;;;52.42;;
23336;SDS011;11840;45.414;12.372;2024-01-15T20:49:09;90.80;;;53.83;;
23336;SDS011;11840;45.414;12.372;2024-01-15T20:51:35;88.50;;;52.13;;
23336;SDS011;11840;45.414;12.372;2024-01-15T20:54:01;86.45;;;50.67;;
23336;SDS011;11840;45.414;12.372;2024-01-15T20:56:26;85.65;;;52.65;;
23336;SDS011;11840;45.414;12.372;2024-01-15T20:58:52;87.88;;;52.08;;
23336;SDS011;11840;45.414;12.372;2024-01-15T21:01:18;85.40;;;51.22;;
23336;SDS011;11840;45.414;12.372;2024-01-15T21:03:43;85.55;;;51.85;;
23336;SDS011;11840;45.414;12.372;2024-01-15T21:06:10;85.78;;;50.78;;
23336;SDS011;11840;45.414;12.372;2024-01-15T21:08:36;88.07;;;52.75;;
23336;SDS011;11840;45.414;12.372;2024-01-15T21:11:02;77.60;;;49.20;;
23336;SDS011;11840;45.414;12.372;2024-01-15T21:13:29;82.68;;;50.75;;
23336;SDS011;11840;45.414;12.372;2024-01-15T21:15:55;81.28;;;50.08;;
23336;SDS011;11840;45.414;12.372;2024-01-15T21:18:21;88.70;;;51.90;;
23336;SDS011;11840;45.414;12.372;2024-01-15T21:20:47;88.63;;;49.60;;
23336;SDS011;11840;45.414;12.372;2024-01-15T21:23:13;86.45;;;51.13;;
23336;SDS011;11840;45.414;12.372;2024-01-15T21:25:39;84.38;;;49.95;;
23336;SDS011;11840;45.414;12.372;2024-01-15T21:28:05;100.53;;;58.08;;
23336;SDS011;11840;45.414;12.372;2024-01-15T21:30:32;84.13;;;49.75;;
23336;SDS011;11840;45.414;12.372;2024-01-15T21:33:01;83.15;;;49.00;;
23336;SDS011;11840;45.414;12.372;2024-01-15T21:35:27;85.25;;;50.83;;
23336;SDS011;11840;45.414;12.372;2024-01-15T21:37:54;88.93;;;50.25;;
23336;SDS011;11840;45.414;12.372;2024-01-15T21:40:20;87.82;;;50.45;;
23336;SDS011;11840;45.414;12.372;2024-01-15T21:42:45;83.25;;;50.08;;
23336;SDS011;11840;45.414;12.372;2024-01-15T21:45:12;79.20;;;48.47;;
23336;SDS011;11840;45.414;12.372;2024-01-15T21:47:38;88.03;;;50.25;;
23336;SDS011;11840;45.414;12.372;2024-01-15T21:50:04;77.53;;;49.15;;
23336;SDS011;11840;45.414;12.372;2024-01-15T21:52:30;84.85;;;48.90;;
23336;SDS011;11840;45.414;12.372;2024-01-15T21:54:57;83.45;;;48.45;;
23336;SDS011;11840;45.414;12.372;2024-01-15T21:57:23;84.68;;;50.70;;
23336;SDS011;11840;45.414;12.372;2024-01-15T21:59:50;80.55;;;48.45;;